sensor_id;sensor_type;location;lat;lon;timestamp;temperature;humidity
41592;DHT22;28026;48.562;14.440;2023-12-04T00:01:09;-8.90;99.90
41592;DHT22;28026;48.562;14.440;2023-12-04T00:03:40;-8.90;99.90
41592;DHT22;28026;48.562;14.440;2023-12-04T00:06:11;-8.90;99.90
41592;DHT22;28026;48.562;14.440;2023-12-04T00:08:42;-8.90;99.90
41592;DHT22;28026;48.562;14.440;2023-12-04T00:11:13;-8.80;99.90
41592;DHT22;28026;48.562;14.440;2023-12-04T00:13:44;-8.90;99.90
41592;DHT22;28026;48.562;14.440;2023-12-04T00:16:15;-8.90;99.90
41592;DHT22;28026;48.562;14.440;2023-12-04T00:18:46;-8.90;99.90
41592;DHT22;28026;48.562;14.440;2023-12-04T00:21:17;-9.00;99.90
41592;DHT22;28026;48.562;14.440;2023-12-04T00:23:48;-9.20;99.90
41592;DHT22;28026;48.562;14.440;2023-12-04T00:26:19;-9.30;99.90
41592;DHT22;28026;48.562;14.440;2023-12-04T00:28:49;-9.20;99.90
41592;DHT22;28026;48.562;14.440;2023-12-04T00:31:20;-9.20;99.90
41592;DHT22;28026;48.562;14.440;2023-12-04T00:33:51;-9.20;99.90
41592;DHT22;28026;48.562;14.440;2023-12-04T00:36:22;-9.20;99.90
41592;DHT22;28026;48.562;14.440;2023-12-04T00:38:53;-9.20;99.90
41592;DHT22;28026;48.562;14.440;2023-12-04T00:41:24;-9.20;99.90
41592;DHT22;28026;48.562;14.440;2023-12-04T00:43:55;-9.20;99.90
41592;DHT22;28026;48.562;14.440;2023-12-04T00:46:25;-9.20;99.90
41592;DHT22;28026;48.562;14.440;2023-12-04T00:48:56;-9.20;99.90
41592;DHT22;28026;48.562;14.440;2023-12-04T00:51:27;-9.10;99.90
41592;DHT22;28026;48.562;14.440;2023-12-04T00:53:58;-9.20;99.90
41592;DHT22;28026;48.562;14.440;2023-12-04T00:56:29;-9.20;99.90
41592;DHT22;28026;48.562;14.440;2023-12-04T00:58:59;-9.10;99.90
41592;DHT22;28026;48.562;14.440;2023-12-04T01:01:31;-9.10;99.90
41592;DHT22;28026;48.562;14.440;2023-12-04T01:04:02;-9.20;99.90
41592;DHT22;28026;48.562;14.440;2023-12-04T01:06:33;-9.50;99.90
41592;DHT22;28026;48.562;14.440;2023-12-04T01:09:04;-9.70;99.90
41592;DHT22;28026;48.562;14.440;2023-12-04T01:11:35;-9.80;99.90
41592;DHT22;28026;48.562;14.440;2023-12-04T01:14:07;-9.70;99.90
41592;DHT22;28026;48.562;14.440;2023-12-04T01:16:38;-9.70;99.90
41592;DHT22;28026;48.562;14.440;2023-12-04T01:19:09;-9.60;99.90
41592;DHT22;28026;48.562;14.440;2023-12-04T01:21:40;-9.50;99.90
41592;DHT22;28026;48.562;14.440;2023-12-04T01:24:13;-9.50;99.90
41592;DHT22;28026;48.562;14.440;2023-12-04T01:26:45;-9.60;99.90
41592;DHT22;28026;48.562;14.440;2023-12-04T01:29:16;-9.60;99.90
41592;DHT22;28026;48.562;14.440;2023-12-04T01:31:47;-9.50;99.90
41592;DHT22;28026;48.562;14.440;2023-12-04T01:34:18;-9.50;99.90
41592;DHT22;28026;48.562;14.440;2023-12-04T01:36:49;-9.50;99.90
41592;DHT22;28026;48.562;14.440;2023-12-04T01:39:19;-9.50;99.90
41592;DHT22;28026;48.562;14.440;2023-12-04T01:41:50;-9.50;99.90
41592;DHT22;28026;48.562;14.440;2023-12-04T01:44:21;-9.50;99.90
41592;DHT22;28026;48.562;14.440;2023-12-04T01:46:52;-9.50;99.90
41592;DHT22;28026;48.562;14.440;2023-12-04T01:49:24;-9.50;99.90
41592;DHT22;28026;48.562;14.440;2023-12-04T01:51:55;-9.50;99.90
41592;DHT22;28026;48.562;14.440;2023-12-04T01:54:27;-9.50;99.90
41592;DHT22;28026;48.562;14.440;2023-12-04T01:56:59;-9.60;99.90
41592;DHT22;28026;48.562;14.440;2023-12-04T01:59:29;-9.70;99.90
41592;DHT22;28026;48.562;14.440;2023-12-04T02:02:01;-9.70;99.90
41592;DHT22;28026;48.562;14.440;2023-12-04T02:04:32;-9.70;99.90
41592;DHT22;28026;48.562;14.440;2023-12-04T02:07:04;-9.60;99.90
41592;DHT22;28026;48.562;14.440;2023-12-04T02:09:34;-9.60;99.90
41592;DHT22;28026;48.562;14.440;2023-12-04T02:12:06;-9.70;99.90
41592;DHT22;28026;48.562;14.440;2023-12-04T02:14:37;-9.80;99.90
41592;DHT22;28026;48.562;14.440;2023-12-04T02:17:08;-10.10;99.90
41592;DHT22;28026;48.562;14.440;2023-12-04T02:19:42;-10.10;99.90
41592;DHT22;28026;48.562;14.440;2023-12-04T02:22:13;-9.90;99.90
41592;DHT22;28026;48.562;14.440;2023-12-04T02:24:47;-9.90;99.90
41592;DHT22;28026;48.562;14.440;2023-12-04T02:27:25;-9.90;99.90
41592;DHT22;28026;48.562;14.440;2023-12-04T02:30:06;-9.90;99.90
41592;DHT22;28026;48.562;14.440;2023-12-04T02:32:45;-9.90;99.90
41592;DHT22;28026;48.562;14.440;2023-12-04T02:35:24;-9.90;99.90
41592;DHT22;28026;48.562;14.440;2023-12-04T02:38:03;-9.90;99.90
41592;DHT22;28026;48.562;14.440;2023-12-04T02:40:35;-10.00;99.90
41592;DHT22;28026;48.562;14.440;2023-12-04T02:43:06;-10.00;99.90
41592;DHT22;28026;48.562;14.440;2023-12-04T02:45:37;-10.00;99.90
41592;DHT22;28026;48.562;14.440;2023-12-04T02:48:07;-10.00;99.90
41592;DHT22;28026;48.562;14.440;2023-12-04T02:50:40;-10.10;99.90
41592;DHT22;28026;48.562;14.440;2023-12-04T02:53:11;-10.10;99.90
41592;DHT22;28026;48.562;14.440;2023-12-04T02:55:42;-10.00;99.90
41592;DHT22;28026;48.562;14.440;2023-12-04T02:58:13;-10.00;99.90
41592;DHT22;28026;48.562;14.440;2023-12-04T03:00:44;-10.00;99.90
41592;DHT22;28026;48.562;14.440;2023-12-04T03:03:15;-10.00;99.90
41592;DHT22;28026;48.562;14.440;2023-12-04T03:05:46;-10.00;99.90
41592;DHT22;28026;48.562;14.440;2023-12-04T03:08:17;-10.00;99.90
41592;DHT22;28026;48.562;14.440;2023-12-04T03:10:48;-10.20;99.90
41592;DHT22;28026;48.562;14.440;2023-12-04T03:13:18;-10.20;99.90
41592;DHT22;28026;48.562;14.440;2023-12-04T03:15:49;-10.10;99.90
41592;DHT22;28026;48.562;14.440;2023-12-04T03:18:20;-10.10;99.90
41592;DHT22;28026;48.562;14.440;2023-12-04T03:20:53;-10.00;99.90
41592;DHT22;28026;48.562;14.440;2023-12-04T03:23:24;-10.10;99.90
41592;DHT22;28026;48.562;14.440;2023-12-04T03:25:55;-10.10;99.90
41592;DHT22;28026;48.562;14.440;2023-12-04T03:28:26;-10.30;99.90
41592;DHT22;28026;48.562;14.440;2023-12-04T03:30:56;-10.30;99.90
41592;DHT22;28026;48.562;14.440;2023-12-04T03:33:27;-10.30;99.90
41592;DHT22;28026;48.562;14.440;2023-12-04T03:35:59;-10.20;99.90
41592;DHT22;28026;48.562;14.440;2023-12-04T03:38:30;-10.20;99.90
41592;DHT22;28026;48.562;14.440;2023-12-04T03:41:01;-10.30;99.90
41592;DHT22;28026;48.562;14.440;2023-12-04T03:43:32;-10.40;99.90
41592;DHT22;28026;48.562;14.440;2023-12-04T03:46:03;-10.50;99.90
41592;DHT22;28026;48.562;14.440;2023-12-04T03:48:35;-10.40;99.90
41592;DHT22;28026;48.562;14.440;2023-12-04T03:51:06;-10.30;99.90
41592;DHT22;28026;48.562;14.440;2023-12-04T03:53:37;-10.30;99.90
41592;DHT22;28026;48.562;14.440;2023-12-04T03:56:08;-10.30;99.90
41592;DHT22;28026;48.562;14.440;2023-12-04T03:58:41;-10.30;99.90
41592;DHT22;28026;48.562;14.440;2023-12-04T04:01:12;-10.40;99.90
41592;DHT22;28026;48.562;14.440;2023-12-04T04:03:43;-10.30;99.90
41592;DHT22;28026;48.562;14.440;2023-12-04T04:06:16;-10.40;99.90
41592;DHT22;28026;48.562;14.440;2023-12-04T04:08:47;-10.40;99.90
41592;DHT22;28026;48.562;14.440;2023-12-04T04:11:18;-10.40;99.90
41592;DHT22;28026;48.562;14.440;2023-12-04T04:13:49;-10.40;99.90
41592;DHT22;28026;48.562;14.440;2023-12-04T04:16:19;-10.40;99.90
41592;DHT22;28026;48.562;14.440;2023-12-04T04:18:50;-10.40;99.90
41592;DHT22;28026;48.562;14.440;2023-12-04T04:21:21;-10.50;99.90
41592;DHT22;28026;48.562;14.440;2023-12-04T04:23:52;-10.50;99.90
41592;DHT22;28026;48.562;14.440;2023-12-04T04:26:24;-10.50;99.90
41592;DHT22;28026;48.562;14.440;2023-12-04T04:28:54;-10.40;99.90
41592;DHT22;28026;48.562;14.440;2023-12-04T04:31:25;-10.20;99.90
41592;DHT22;28026;48.562;14.440;2023-12-04T04:33:56;-10.20;99.90
41592;DHT22;28026;48.562;14.440;2023-12-04T04:36:27;-10.40;99.90
41592;DHT22;28026;48.562;14.440;2023-12-04T04:38:58;-10.40;99.90
41592;DHT22;28026;48.562;14.440;2023-12-04T04:41:28;-10.40;99.90
41592;DHT22;28026;48.562;14.440;2023-12-04T04:43:59;-10.40;99.90
41592;DHT22;28026;48.562;14.440;2023-12-04T04:46:30;-10.50;99.90
41592;DHT22;28026;48.562;14.440;2023-12-04T04:49:01;-10.50;99.90
41592;DHT22;28026;48.562;14.440;2023-12-04T04:51:33;-10.50;99.90
41592;DHT22;28026;48.562;14.440;2023-12-04T04:54:04;-10.50;99.90
41592;DHT22;28026;48.562;14.440;2023-12-04T04:56:35;-10.50;99.90
41592;DHT22;28026;48.562;14.440;2023-12-04T04:59:06;-10.50;99.90
41592;DHT22;28026;48.562;14.440;2023-12-04T05:01:37;-10.50;99.90
41592;DHT22;28026;48.562;14.440;2023-12-04T05:04:08;-10.50;99.90
41592;DHT22;28026;48.562;14.440;2023-12-04T05:06:39;-10.50;99.90
41592;DHT22;28026;48.562;14.440;2023-12-04T05:09:10;-10.50;99.90
41592;DHT22;28026;48.562;14.440;2023-12-04T05:11:41;-10.60;99.90
41592;DHT22;28026;48.562;14.440;2023-12-04T05:14:12;-10.70;99.90
41592;DHT22;28026;48.562;14.440;2023-12-04T05:16:43;-10.60;99.90
41592;DHT22;28026;48.562;14.440;2023-12-04T05:19:13;-10.60;99.90
41592;DHT22;28026;48.562;14.440;2023-12-04T05:21:44;-10.70;99.90
41592;DHT22;28026;48.562;14.440;2023-12-04T05:24:15;-10.70;99.90
41592;DHT22;28026;48.562;14.440;2023-12-04T05:26:46;-10.70;99.90
41592;DHT22;28026;48.562;14.440;2023-12-04T05:29:17;-10.60;99.90
41592;DHT22;28026;48.562;14.440;2023-12-04T05:31:48;-10.60;99.90
41592;DHT22;28026;48.562;14.440;2023-12-04T05:34:18;-10.60;99.90
41592;DHT22;28026;48.562;14.440;2023-12-04T05:36:49;-10.60;99.90
41592;DHT22;28026;48.562;14.440;2023-12-04T05:39:20;-10.70;99.90
41592;DHT22;28026;48.562;14.440;2023-12-04T05:41:51;-10.60;99.90
41592;DHT22;28026;48.562;14.440;2023-12-04T05:44:22;-10.60;99.90
41592;DHT22;28026;48.562;14.440;2023-12-04T05:46:53;-10.60;99.90
41592;DHT22;28026;48.562;14.440;2023-12-04T05:49:24;-10.60;99.90
41592;DHT22;28026;48.562;14.440;2023-12-04T05:51:55;-10.60;99.90
41592;DHT22;28026;48.562;14.440;2023-12-04T05:54:25;-10.50;99.90
41592;DHT22;28026;48.562;14.440;2023-12-04T05:56:56;-10.50;99.90
41592;DHT22;28026;48.562;14.440;2023-12-04T05:59:27;-10.70;99.90
41592;DHT22;28026;48.562;14.440;2023-12-04T06:01:58;-10.80;99.90
41592;DHT22;28026;48.562;14.440;2023-12-04T06:04:30;-10.80;99.90
41592;DHT22;28026;48.562;14.440;2023-12-04T06:07:01;-10.70;99.90
41592;DHT22;28026;48.562;14.440;2023-12-04T06:09:31;-10.80;99.90
41592;DHT22;28026;48.562;14.440;2023-12-04T06:12:03;-10.80;99.90
41592;DHT22;28026;48.562;14.440;2023-12-04T06:14:38;-10.80;99.90
41592;DHT22;28026;48.562;14.440;2023-12-04T06:17:09;-10.70;99.90
41592;DHT22;28026;48.562;14.440;2023-12-04T06:19:40;-10.60;99.90
41592;DHT22;28026;48.562;14.440;2023-12-04T06:22:11;-10.60;99.90
41592;DHT22;28026;48.562;14.440;2023-12-04T06:24:42;-10.70;99.90
41592;DHT22;28026;48.562;14.440;2023-12-04T06:27:18;-10.70;99.90
41592;DHT22;28026;48.562;14.440;2023-12-04T06:29:52;-10.70;99.90
41592;DHT22;28026;48.562;14.440;2023-12-04T06:32:24;-10.70;99.90
41592;DHT22;28026;48.562;14.440;2023-12-04T06:34:55;-10.70;99.90
41592;DHT22;28026;48.562;14.440;2023-12-04T06:37:26;-10.80;99.90
41592;DHT22;28026;48.562;14.440;2023-12-04T06:40:00;-10.70;99.90
41592;DHT22;28026;48.562;14.440;2023-12-04T06:42:37;-10.70;99.90
41592;DHT22;28026;48.562;14.440;2023-12-04T06:45:08;-10.70;99.90
41592;DHT22;28026;48.562;14.440;2023-12-04T06:47:43;-10.60;99.90
41592;DHT22;28026;48.562;14.440;2023-12-04T06:50:16;-10.30;99.90
41592;DHT22;28026;48.562;14.440;2023-12-04T06:52:47;-9.10;99.90
41592;DHT22;28026;48.562;14.440;2023-12-04T06:55:18;-8.10;99.90
41592;DHT22;28026;48.562;14.440;2023-12-04T06:57:49;-7.50;99.90
41592;DHT22;28026;48.562;14.440;2023-12-04T07:00:21;-7.40;99.90
41592;DHT22;28026;48.562;14.440;2023-12-04T07:02:52;-7.70;99.90
41592;DHT22;28026;48.562;14.440;2023-12-04T07:05:23;-8.20;99.90
41592;DHT22;28026;48.562;14.440;2023-12-04T07:07:54;-8.60;99.90
41592;DHT22;28026;48.562;14.440;2023-12-04T07:10:26;-8.90;99.90
41592;DHT22;28026;48.562;14.440;2023-12-04T07:12:56;-9.00;99.90
41592;DHT22;28026;48.562;14.440;2023-12-04T07:15:27;-9.00;99.90
41592;DHT22;28026;48.562;14.440;2023-12-04T07:17:58;-8.70;99.90
41592;DHT22;28026;48.562;14.440;2023-12-04T07:20:29;-8.20;99.90
41592;DHT22;28026;48.562;14.440;2023-12-04T07:23:00;-8.00;99.90
41592;DHT22;28026;48.562;14.440;2023-12-04T07:25:32;-7.70;99.90
41592;DHT22;28026;48.562;14.440;2023-12-04T07:28:03;-7.50;99.90
41592;DHT22;28026;48.562;14.440;2023-12-04T07:30:34;-6.80;99.90
41592;DHT22;28026;48.562;14.440;2023-12-04T07:33:05;-6.30;99.90
41592;DHT22;28026;48.562;14.440;2023-12-04T07:35:35;-5.80;99.90
41592;DHT22;28026;48.562;14.440;2023-12-04T07:38:06;-5.50;99.90
41592;DHT22;28026;48.562;14.440;2023-12-04T07:40:38;-5.50;99.90
41592;DHT22;28026;48.562;14.440;2023-12-04T07:43:08;-5.60;99.90
41592;DHT22;28026;48.562;14.440;2023-12-04T07:45:40;-5.50;99.90
41592;DHT22;28026;48.562;14.440;2023-12-04T07:48:11;-5.10;99.90
41592;DHT22;28026;48.562;14.440;2023-12-04T07:50:43;-4.70;99.90
41592;DHT22;28026;48.562;14.440;2023-12-04T07:53:14;-4.50;99.90
41592;DHT22;28026;48.562;14.440;2023-12-04T07:55:44;-4.50;99.90
41592;DHT22;28026;48.562;14.440;2023-12-04T07:58:17;-4.10;99.90
41592;DHT22;28026;48.562;14.440;2023-12-04T08:00:48;-3.60;99.90
41592;DHT22;28026;48.562;14.440;2023-12-04T08:03:20;-3.60;99.90
41592;DHT22;28026;48.562;14.440;2023-12-04T08:05:51;-3.50;99.90
41592;DHT22;28026;48.562;14.440;2023-12-04T08:08:23;-3.20;99.90
41592;DHT22;28026;48.562;14.440;2023-12-04T08:10:53;-3.20;99.90
41592;DHT22;28026;48.562;14.440;2023-12-04T08:13:24;-3.50;99.90
41592;DHT22;28026;48.562;14.440;2023-12-04T08:15:55;-3.20;99.90
41592;DHT22;28026;48.562;14.440;2023-12-04T08:18:26;-2.90;99.90
41592;DHT22;28026;48.562;14.440;2023-12-04T08:21:00;-3.00;99.90
41592;DHT22;28026;48.562;14.440;2023-12-04T08:23:31;-2.90;99.90
41592;DHT22;28026;48.562;14.440;2023-12-04T08:26:02;-2.60;99.90
41592;DHT22;28026;48.562;14.440;2023-12-04T08:28:34;-2.50;99.90
41592;DHT22;28026;48.562;14.440;2023-12-04T08:31:10;-2.60;99.90
41592;DHT22;28026;48.562;14.440;2023-12-04T08:33:41;-2.30;99.90
41592;DHT22;28026;48.562;14.440;2023-12-04T08:36:12;-2.20;99.90
41592;DHT22;28026;48.562;14.440;2023-12-04T08:38:43;-1.40;99.90
41592;DHT22;28026;48.562;14.440;2023-12-04T08:41:14;-0.80;99.90
41592;DHT22;28026;48.562;14.440;2023-12-04T08:43:45;-0.80;99.90
41592;DHT22;28026;48.562;14.440;2023-12-04T08:46:16;-1.00;99.90
41592;DHT22;28026;48.562;14.440;2023-12-04T08:48:47;-0.60;99.90
41592;DHT22;28026;48.562;14.440;2023-12-04T08:51:18;-0.40;99.90
41592;DHT22;28026;48.562;14.440;2023-12-04T08:53:49;-0.60;99.90
41592;DHT22;28026;48.562;14.440;2023-12-04T08:56:20;-0.80;99.90
41592;DHT22;28026;48.562;14.440;2023-12-04T08:58:51;-1.10;99.90
41592;DHT22;28026;48.562;14.440;2023-12-04T09:01:22;-0.90;99.90
41592;DHT22;28026;48.562;14.440;2023-12-04T09:03:53;-0.80;99.90
41592;DHT22;28026;48.562;14.440;2023-12-04T09:06:26;-0.50;99.90
41592;DHT22;28026;48.562;14.440;2023-12-04T09:08:57;0.00;99.90
41592;DHT22;28026;48.562;14.440;2023-12-04T09:11:28;0.70;99.90
41592;DHT22;28026;48.562;14.440;2023-12-04T09:13:59;0.90;99.90
41592;DHT22;28026;48.562;14.440;2023-12-04T09:16:30;1.00;99.90
41592;DHT22;28026;48.562;14.440;2023-12-04T09:19:01;1.10;99.90
41592;DHT22;28026;48.562;14.440;2023-12-04T09:21:32;1.00;99.90
41592;DHT22;28026;48.562;14.440;2023-12-04T09:24:03;1.30;99.90
41592;DHT22;28026;48.562;14.440;2023-12-04T09:26:34;1.70;99.90
41592;DHT22;28026;48.562;14.440;2023-12-04T09:29:04;1.10;99.90
41592;DHT22;28026;48.562;14.440;2023-12-04T09:31:35;0.90;99.90
41592;DHT22;28026;48.562;14.440;2023-12-04T09:34:06;0.70;99.90
41592;DHT22;28026;48.562;14.440;2023-12-04T09:36:38;0.30;99.90
41592;DHT22;28026;48.562;14.440;2023-12-04T09:39:09;0.20;99.90
41592;DHT22;28026;48.562;14.440;2023-12-04T09:41:42;-0.10;99.90
41592;DHT22;28026;48.562;14.440;2023-12-04T09:44:14;-0.10;99.90
41592;DHT22;28026;48.562;14.440;2023-12-04T09:46:47;0.20;99.90
41592;DHT22;28026;48.562;14.440;2023-12-04T09:49:19;0.40;99.90
41592;DHT22;28026;48.562;14.440;2023-12-04T09:51:51;0.70;99.90
41592;DHT22;28026;48.562;14.440;2023-12-04T09:54:22;0.70;99.90
41592;DHT22;28026;48.562;14.440;2023-12-04T09:56:54;0.90;99.90
41592;DHT22;28026;48.562;14.440;2023-12-04T09:59:26;1.30;99.90
41592;DHT22;28026;48.562;14.440;2023-12-04T10:02:00;1.20;99.90
41592;DHT22;28026;48.562;14.440;2023-12-04T10:04:32;0.70;99.90
41592;DHT22;28026;48.562;14.440;2023-12-04T10:07:06;0.60;99.90
41592;DHT22;28026;48.562;14.440;2023-12-04T10:09:37;0.50;99.90
41592;DHT22;28026;48.562;14.440;2023-12-04T10:12:09;0.40;99.90
41592;DHT22;28026;48.562;14.440;2023-12-04T10:14:40;0.10;99.90
41592;DHT22;28026;48.562;14.440;2023-12-04T10:17:15;-0.50;99.90
41592;DHT22;28026;48.562;14.440;2023-12-04T10:20:04;-0.60;99.90
41592;DHT22;28026;48.562;14.440;2023-12-04T10:22:57;0.00;99.90
41592;DHT22;28026;48.562;14.440;2023-12-04T10:25:30;0.70;99.90
41592;DHT22;28026;48.562;14.440;2023-12-04T10:28:11;0.80;99.90
41592;DHT22;28026;48.562;14.440;2023-12-04T10:30:45;0.80;99.90
41592;DHT22;28026;48.562;14.440;2023-12-04T10:33:16;1.00;99.90
41592;DHT22;28026;48.562;14.440;2023-12-04T10:35:47;0.90;99.90
41592;DHT22;28026;48.562;14.440;2023-12-04T10:38:18;0.50;99.90
41592;DHT22;28026;48.562;14.440;2023-12-04T10:40:49;0.60;99.90
41592;DHT22;28026;48.562;14.440;2023-12-04T10:43:22;0.80;99.90
41592;DHT22;28026;48.562;14.440;2023-12-04T10:45:54;0.10;99.90
41592;DHT22;28026;48.562;14.440;2023-12-04T10:48:25;0.30;99.90
41592;DHT22;28026;48.562;14.440;2023-12-04T10:50:56;0.70;99.90
41592;DHT22;28026;48.562;14.440;2023-12-04T10:53:29;1.00;99.90
41592;DHT22;28026;48.562;14.440;2023-12-04T10:56:02;1.10;99.90
41592;DHT22;28026;48.562;14.440;2023-12-04T10:58:36;0.70;99.90
41592;DHT22;28026;48.562;14.440;2023-12-04T11:01:12;0.80;99.90
41592;DHT22;28026;48.562;14.440;2023-12-04T11:03:48;1.00;99.90
41592;DHT22;28026;48.562;14.440;2023-12-04T11:06:24;0.50;99.90
41592;DHT22;28026;48.562;14.440;2023-12-04T11:08:59;0.10;99.90
41592;DHT22;28026;48.562;14.440;2023-12-04T11:11:35;0.20;99.90
41592;DHT22;28026;48.562;14.440;2023-12-04T11:14:12;-0.30;99.90
41592;DHT22;28026;48.562;14.440;2023-12-04T11:16:56;-0.10;99.90
41592;DHT22;28026;48.562;14.440;2023-12-04T11:22:34;-0.30;99.90
41592;DHT22;28026;48.562;14.440;2023-12-04T11:25:10;0.00;99.90
41592;DHT22;28026;48.562;14.440;2023-12-04T11:27:44;0.20;99.90
41592;DHT22;28026;48.562;14.440;2023-12-04T11:30:15;0.30;99.90
41592;DHT22;28026;48.562;14.440;2023-12-04T11:32:48;0.40;99.90
41592;DHT22;28026;48.562;14.440;2023-12-04T11:35:20;0.60;99.90
41592;DHT22;28026;48.562;14.440;2023-12-04T11:37:52;-0.40;99.90
41592;DHT22;28026;48.562;14.440;2023-12-04T11:40:23;-0.70;99.90
41592;DHT22;28026;48.562;14.440;2023-12-04T11:42:55;-0.30;99.90
41592;DHT22;28026;48.562;14.440;2023-12-04T11:45:26;0.20;99.90
41592;DHT22;28026;48.562;14.440;2023-12-04T11:48:03;0.70;99.90
41592;DHT22;28026;48.562;14.440;2023-12-04T11:50:34;0.90;99.90
41592;DHT22;28026;48.562;14.440;2023-12-04T11:53:05;0.90;99.90
41592;DHT22;28026;48.562;14.440;2023-12-04T11:55:39;0.90;99.90
41592;DHT22;28026;48.562;14.440;2023-12-04T11:58:16;0.70;99.90
41592;DHT22;28026;48.562;14.440;2023-12-04T12:00:47;0.40;99.90
41592;DHT22;28026;48.562;14.440;2023-12-04T12:03:21;-1.10;99.90
41592;DHT22;28026;48.562;14.440;2023-12-04T12:05:52;-0.90;99.90
41592;DHT22;28026;48.562;14.440;2023-12-04T12:08:23;-0.90;99.90
41592;DHT22;28026;48.562;14.440;2023-12-04T12:10:55;-1.20;99.90
41592;DHT22;28026;48.562;14.440;2023-12-04T12:13:27;-0.90;99.90
41592;DHT22;28026;48.562;14.440;2023-12-04T12:15:58;-1.00;99.90
41592;DHT22;28026;48.562;14.440;2023-12-04T12:18:29;-1.00;99.90
41592;DHT22;28026;48.562;14.440;2023-12-04T12:21:00;-2.20;99.90
41592;DHT22;28026;48.562;14.440;2023-12-04T12:23:33;-1.90;99.90
41592;DHT22;28026;48.562;14.440;2023-12-04T12:26:04;-1.60;99.90
41592;DHT22;28026;48.562;14.440;2023-12-04T12:28:35;-1.60;99.90
41592;DHT22;28026;48.562;14.440;2023-12-04T12:31:06;-1.20;99.90
41592;DHT22;28026;48.562;14.440;2023-12-04T12:33:37;-1.00;99.90
41592;DHT22;28026;48.562;14.440;2023-12-04T12:36:09;-0.90;99.90
41592;DHT22;28026;48.562;14.440;2023-12-04T12:38:41;-0.90;99.90
41592;DHT22;28026;48.562;14.440;2023-12-04T12:41:12;-0.90;99.90
41592;DHT22;28026;48.562;14.440;2023-12-04T12:43:43;-1.00;99.90
41592;DHT22;28026;48.562;14.440;2023-12-04T12:46:14;-1.10;99.90
41592;DHT22;28026;48.562;14.440;2023-12-04T12:48:48;-1.30;99.90
41592;DHT22;28026;48.562;14.440;2023-12-04T12:51:18;-1.00;99.90
41592;DHT22;28026;48.562;14.440;2023-12-04T12:53:50;-1.30;99.90
41592;DHT22;28026;48.562;14.440;2023-12-04T12:56:21;-1.60;99.90
41592;DHT22;28026;48.562;14.440;2023-12-04T12:58:55;-1.80;99.90
41592;DHT22;28026;48.562;14.440;2023-12-04T13:01:31;-1.90;99.90
41592;DHT22;28026;48.562;14.440;2023-12-04T13:04:02;-1.70;99.90
41592;DHT22;28026;48.562;14.440;2023-12-04T13:06:34;-2.10;99.90
41592;DHT22;28026;48.562;14.440;2023-12-04T13:09:05;-2.10;99.90
41592;DHT22;28026;48.562;14.440;2023-12-04T13:11:36;-2.10;99.90
41592;DHT22;28026;48.562;14.440;2023-12-04T13:14:08;-2.20;99.90
41592;DHT22;28026;48.562;14.440;2023-12-04T13:16:39;-2.00;99.90
41592;DHT22;28026;48.562;14.440;2023-12-04T13:19:10;-2.30;99.90
41592;DHT22;28026;48.562;14.440;2023-12-04T13:21:41;-2.30;99.90
41592;DHT22;28026;48.562;14.440;2023-12-04T13:24:12;-2.60;99.90
41592;DHT22;28026;48.562;14.440;2023-12-04T13:26:44;-2.90;99.90
41592;DHT22;28026;48.562;14.440;2023-12-04T13:29:15;-2.80;99.90
41592;DHT22;28026;48.562;14.440;2023-12-04T13:31:48;-2.90;99.90
41592;DHT22;28026;48.562;14.440;2023-12-04T13:34:20;-3.20;99.90
41592;DHT22;28026;48.562;14.440;2023-12-04T13:36:51;-2.90;99.90
41592;DHT22;28026;48.562;14.440;2023-12-04T13:39:21;-2.90;99.90
41592;DHT22;28026;48.562;14.440;2023-12-04T13:42:17;-3.30;99.90
41592;DHT22;28026;48.562;14.440;2023-12-04T13:45:07;-3.10;99.90
41592;DHT22;28026;48.562;14.440;2023-12-04T13:47:42;-3.10;99.90
41592;DHT22;28026;48.562;14.440;2023-12-04T13:50:17;-3.10;99.90
41592;DHT22;28026;48.562;14.440;2023-12-04T13:52:48;-3.30;99.90
41592;DHT22;28026;48.562;14.440;2023-12-04T13:55:26;-3.50;99.90
41592;DHT22;28026;48.562;14.440;2023-12-04T13:58:17;-3.70;99.90
41592;DHT22;28026;48.562;14.440;2023-12-04T14:01:08;-3.70;99.90
41592;DHT22;28026;48.562;14.440;2023-12-04T14:03:44;-3.70;99.90
41592;DHT22;28026;48.562;14.440;2023-12-04T14:06:15;-3.60;99.90
41592;DHT22;28026;48.562;14.440;2023-12-04T14:08:46;-3.70;99.90
41592;DHT22;28026;48.562;14.440;2023-12-04T14:11:17;-3.80;99.90
41592;DHT22;28026;48.562;14.440;2023-12-04T14:13:48;-3.80;99.90
41592;DHT22;28026;48.562;14.440;2023-12-04T14:16:19;-3.80;99.90
41592;DHT22;28026;48.562;14.440;2023-12-04T14:18:50;-3.80;99.90
41592;DHT22;28026;48.562;14.440;2023-12-04T14:21:20;-3.90;99.90
41592;DHT22;28026;48.562;14.440;2023-12-04T14:23:51;-3.90;99.90
41592;DHT22;28026;48.562;14.440;2023-12-04T14:26:22;-3.90;99.90
41592;DHT22;28026;48.562;14.440;2023-12-04T14:28:53;-3.90;99.90
41592;DHT22;28026;48.562;14.440;2023-12-04T14:31:24;-4.10;99.90
41592;DHT22;28026;48.562;14.440;2023-12-04T14:33:55;-4.40;99.90
41592;DHT22;28026;48.562;14.440;2023-12-04T14:36:26;-4.60;99.90
41592;DHT22;28026;48.562;14.440;2023-12-04T14:39:00;-4.60;99.90
41592;DHT22;28026;48.562;14.440;2023-12-04T14:41:31;-4.50;99.90
41592;DHT22;28026;48.562;14.440;2023-12-04T14:44:03;-4.30;99.90
41592;DHT22;28026;48.562;14.440;2023-12-04T14:46:34;-4.30;99.90
41592;DHT22;28026;48.562;14.440;2023-12-04T14:49:05;-4.10;99.90
41592;DHT22;28026;48.562;14.440;2023-12-04T14:51:35;-4.00;99.90
41592;DHT22;28026;48.562;14.440;2023-12-04T14:54:06;-3.80;99.90
41592;DHT22;28026;48.562;14.440;2023-12-04T14:57:04;-3.80;99.90
41592;DHT22;28026;48.562;14.440;2023-12-04T14:59:38;-3.80;99.90
41592;DHT22;28026;48.562;14.440;2023-12-04T15:02:14;-3.90;99.90
41592;DHT22;28026;48.562;14.440;2023-12-04T15:04:45;-4.10;99.90
41592;DHT22;28026;48.562;14.440;2023-12-04T15:07:35;-4.20;99.90
41592;DHT22;28026;48.562;14.440;2023-12-04T15:10:30;-4.30;99.90
41592;DHT22;28026;48.562;14.440;2023-12-04T15:13:10;-4.50;99.90
41592;DHT22;28026;48.562;14.440;2023-12-04T15:15:59;-4.70;99.90
41592;DHT22;28026;48.562;14.440;2023-12-04T15:18:49;-4.90;99.90
41592;DHT22;28026;48.562;14.440;2023-12-04T15:21:26;-4.90;99.90
41592;DHT22;28026;48.562;14.440;2023-12-04T15:23:59;-4.90;99.90
41592;DHT22;28026;48.562;14.440;2023-12-04T15:26:30;-4.90;99.90
41592;DHT22;28026;48.562;14.440;2023-12-04T15:29:01;-4.90;99.90
41592;DHT22;28026;48.562;14.440;2023-12-04T15:31:34;-5.00;99.90
41592;DHT22;28026;48.562;14.440;2023-12-04T15:34:05;-5.00;99.90
41592;DHT22;28026;48.562;14.440;2023-12-04T15:36:36;-5.10;99.90
41592;DHT22;28026;48.562;14.440;2023-12-04T15:39:08;-5.20;99.90
41592;DHT22;28026;48.562;14.440;2023-12-04T15:41:39;-5.40;99.90
41592;DHT22;28026;48.562;14.440;2023-12-04T15:44:10;-5.60;99.90
41592;DHT22;28026;48.562;14.440;2023-12-04T15:46:42;-5.60;99.90
41592;DHT22;28026;48.562;14.440;2023-12-04T15:49:13;-5.70;99.90